Time;durP1;ratioP1;P1;durP2;ratioP2;P2;SDS_P1;SDS_P2;PMS_P1;PMS_P2;Temp;Humidity;BMP_temperature;BMP_pressure;BME280_temperature;BME280_humidity;BME280_pressure;Samples;Min_cycle;Max_cycle;Signal;HPM_P1;HPM_P2
2021/01/25 00:00:15;;;;;;;3.28;1.83;;;6.90;49.90;;;;;;5035128;28;20084;-76
2021/01/25 00:02:41;;;;;;;3.08;1.70;;;6.90;49.90;;;;;;5032864;28;20082;-73
2021/01/25 00:05:08;;;;;;;4.55;1.88;;;6.90;49.80;;;;;;5035764;28;20029;-74
2021/01/25 00:07:34;;;;;;;2.78;1.73;;;6.90;49.70;;;;;;5033220;28;20036;-75
2021/01/25 00:10:00;;;;;;;3.17;1.52;;;6.90;49.70;;;;;;5035303;28;20022;-74
2021/01/25 00:12:27;;;;;;;3.88;1.70;;;6.90;49.70;;;;;;5035486;28;20382;-74
2021/01/25 00:14:52;;;;;;;2.38;1.60;;;6.90;49.70;;;;;;5035368;28;20028;-77
2021/01/25 00:17:18;;;;;;;12.32;5.70;;;6.90;49.70;;;;;;5035287;28;20021;-72
2021/01/25 00:19:45;;;;;;;8.38;4.53;;;6.90;49.70;;;;;;5034685;28;20045;-75
2021/01/25 00:22:11;;;;;;;10.65;5.47;;;6.90;49.70;;;;;;5039425;28;20540;-77
2021/01/25 00:24:37;;;;;;;10.90;5.72;;;6.90;49.80;;;;;;5032322;28;20033;-77
2021/01/25 00:27:03;;;;;;;5.53;3.13;;;6.90;49.90;;;;;;5034650;28;20029;-77
2021/01/25 00:29:28;;;;;;;5.88;3.33;;;6.90;50.00;;;;;;5035031;28;20490;-77
2021/01/25 00:31:54;;;;;;;5.30;2.90;;;6.90;50.00;;;;;;5034834;28;20050;-73
2021/01/25 00:34:21;;;;;;;3.97;2.08;;;6.90;50.00;;;;;;5033253;28;20021;-73
2021/01/25 00:36:47;;;;;;;5.70;1.65;;;6.90;50.00;;;;;;5035254;28;20021;-74
2021/01/25 00:39:13;;;;;;;5.15;1.38;;;6.90;49.90;;;;;;5034751;28;20501;-73
2021/01/25 00:41:39;;;;;;;4.18;2.08;;;6.90;50.00;;;;;;5022063;28;20034;-73
2021/01/25 00:44:05;;;;;;;3.95;2.05;;;6.90;50.10;;;;;;5025366;28;20030;-75
2021/01/25 00:46:31;;;;;;;2.75;1.70;;;7.00;50.70;;;;;;5025975;28;20025;-72
2021/01/25 00:48:57;;;;;;;3.40;1.50;;;7.00;50.00;;;;;;5015036;28;20025;-74
2021/01/25 00:51:23;;;;;;;2.75;1.42;;;7.00;49.80;;;;;;5012135;28;20029;-76
2021/01/25 00:53:48;;;;;;;4.00;1.80;;;7.00;49.80;;;;;;5013299;28;20093;-74
2021/01/25 00:56:14;;;;;;;5.20;1.88;;;6.90;49.60;;;;;;5015494;28;20121;-74
2021/01/25 00:58:40;;;;;;;3.70;1.85;;;7.00;49.60;;;;;;5015287;28;20420;-75
2021/01/25 01:01:06;;;;;;;2.53;1.35;;;7.00;49.50;;;;;;5014893;28;20065;-77
2021/01/25 01:03:32;;;;;;;2.60;1.60;;;6.90;49.50;;;;;;5014560;28;20029;-75
2021/01/25 01:05:58;;;;;;;4.90;1.70;;;6.90;49.50;;;;;;5014787;28;20076;-75
2021/01/25 01:08:24;;;;;;;2.92;1.55;;;6.90;49.60;;;;;;5014611;28;20041;-76
2021/01/25 01:10:50;;;;;;;1.90;1.38;;;6.90;49.60;;;;;;5012225;28;20022;-74
2021/01/25 01:13:16;;;;;;;2.08;1.25;;;6.90;49.70;;;;;;5014530;28;20043;-74
2021/01/25 01:15:41;;;;;;;3.22;1.70;;;6.90;49.70;;;;;;5014589;28;20524;-72
2021/01/25 01:18:07;;;;;;;7.78;2.13;;;6.90;49.70;;;;;;5014613;28;20093;-76
2021/01/25 01:20:33;;;;;;;3.42;1.63;;;6.90;49.80;;;;;;5026139;28;20021;-75
2021/01/25 01:22:59;;;;;;;8.73;2.10;;;6.90;49.80;;;;;;5034114;28;20074;-75
2021/01/25 01:25:24;;;;;;;5.25;1.85;;;6.90;49.80;;;;;;5034083;28;20033;-75
2021/01/25 01:27:53;;;;;;;2.38;1.60;;;6.90;49.90;;;;;;5034040;28;20063;-75
2021/01/25 01:30:19;;;;;;;2.40;1.50;;;6.90;49.80;;;;;;5012794;28;20496;-75
2021/01/25 01:32:46;;;;;;;5.13;1.60;;;6.90;49.80;;;;;;5014397;28;20022;-76
2021/01/25 01:35:11;;;;;;;2.90;1.42;;;6.90;49.70;;;;;;4998338;28;20030;-74
2021/01/25 01:37:37;;;;;;;3.15;1.90;;;6.90;49.80;;;;;;5033943;28;20031;-74
2021/01/25 01:40:08;;;;;;;4.22;1.50;;;6.90;49.60;;;;;;5032673;28;20034;-75
2021/01/25 01:42:35;;;;;;;3.72;1.63;;;6.90;49.60;;;;;;5015971;28;20474;-74
2021/01/25 01:45:02;;;;;;;3.75;1.60;;;6.90;49.60;;;;;;5034111;28;20033;-76
2021/01/25 01:47:28;;;;;;;2.55;1.58;;;6.90;49.70;;;;;;5033723;28;20026;-74
2021/01/25 01:49:56;;;;;;;5.85;1.98;;;6.90;49.70;;;;;;5033727;28;20075;-74
2021/01/25 01:52:22;;;;;;;4.10;1.90;;;6.90;49.80;;;;;;5032057;28;20052;-74
2021/01/25 01:54:48;;;;;;;4.32;2.35;;;6.90;49.90;;;;;;5032416;28;20049;-75
2021/01/25 01:57:15;;;;;;;6.05;1.90;;;6.90;49.90;;;;;;5033596;28;20028;-73
2021/01/25 01:59:41;;;;;;;3.80;1.95;;;6.90;49.90;;;;;;5015945;28;20060;-74
2021/01/25 02:02:06;;;;;;;5.07;1.73;;;6.90;49.80;;;;;;5033511;28;20049;-74
2021/01/25 02:04:33;;;;;;;4.68;2.20;;;6.80;49.70;;;;;;5032223;28;20513;-75
2021/01/25 02:07:02;;;;;;;2.83;1.73;;;6.80;49.70;;;;;;5033427;28;20092;-76
2021/01/25 02:09:30;;;;;;;2.33;1.42;;;6.80;49.80;;;;;;5033476;28;20030;-76
2021/01/25 02:11:56;;;;;;;7.60;1.58;;;6.80;49.80;;;;;;5033417;28;20021;-76
2021/01/25 02:14:23;;;;;;;4.65;1.42;;;6.80;49.80;;;;;;5033668;28;20025;-76
2021/01/25 02:16:48;;;;;;;4.05;1.52;;;6.80;49.80;;;;;;5033364;28;20025;-75
2021/01/25 02:19:23;;;;;;;2.70;1.52;;;6.70;49.70;;;;;;5015518;28;20086;-73
2021/01/25 02:22:06;;;;;;;5.95;1.75;;;6.60;49.50;;;;;;5033558;28;20017;-74
2021/01/25 02:24:37;;;;;;;3.10;1.63;;;6.50;49.50;;;;;;5032078;28;20544;-76
2021/01/25 02:27:07;;;;;;;3.67;1.77;;;6.40;49.50;;;;;;5033515;28;20160;-76
2021/01/25 02:29:33;;;;;;;2.08;1.50;;;6.30;49.50;;;;;;5032268;28;20029;-73
2021/01/25 02:32:00;;;;;;;2.60;1.20;;;6.10;49.60;;;;;;5030863;28;20045;-76
2021/01/25 02:34:29;;;;;;;2.65;1.63;;;6.00;49.70;;;;;;5032967;28;20387;-76
2021/01/25 02:36:57;;;;;;;1.88;1.20;;;5.90;49.80;;;;;;5032431;28;20031;-75
2021/01/25 02:39:24;;;;;;;1.70;1.25;;;5.80;50.00;;;;;;5032337;28;20053;-73
2021/01/25 02:41:51;;;;;;;4.10;1.67;;;5.70;50.10;;;;;;5015451;28;20061;-75
2021/01/25 02:44:18;;;;;;;5.43;2.47;;;5.50;50.10;;;;;;5032694;28;20025;-75
2021/01/25 02:46:44;;;;;;;2.60;1.30;;;5.40;50.30;;;;;;5032963;28;20360;-76
2021/01/25 02:49:11;;;;;;;2.97;1.67;;;5.30;50.40;;;;;;5031728;28;20060;-74
2021/01/25 02:51:37;;;;;;;3.28;1.73;;;5.20;50.60;;;;;;5033076;28;20057;-74
2021/01/25 02:54:03;;;;;;;2.63;1.40;;;5.10;50.70;;;;;;5033292;28;20030;-75
2021/01/25 02:56:30;;;;;;;3.70;1.70;;;5.00;50.80;;;;;;5032996;28;20028;-76
2021/01/25 02:58:56;;;;;;;5.07;1.55;;;4.90;51.00;;;;;;5031718;28;20026;-74
2021/01/25 03:01:21;;;;;;;2.95;1.40;;;4.80;51.10;;;;;;5032938;28;20028;-76
2021/01/25 03:03:51;;;;;;;4.40;1.88;;;4.70;51.30;;;;;;5032903;28;20463;-76
2021/01/25 03:06:17;;;;;;;4.82;1.77;;;4.70;51.70;;;;;;5036036;28;20130;-73
2021/01/25 03:08:45;;;;;;;3.42;1.70;;;4.60;51.90;;;;;;5036594;28;20030;-75
2021/01/25 03:11:11;;;;;;;6.95;1.98;;;4.50;52.10;;;;;;5036618;28;20148;-73
2021/01/25 03:13:37;;;;;;;4.13;2.17;;;4.50;52.30;;;;;;5036558;28;20360;-76
2021/01/25 03:16:03;;;;;;;6.45;2.25;;;4.40;52.60;;;;;;5036522;28;20155;-74
2021/01/25 03:18:29;;;;;;;4.55;2.10;;;4.40;52.60;;;;;;5052935;28;20486;-76
2021/01/25 03:20:55;;;;;;;2.70;1.80;;;4.30;52.80;;;;;;5056673;28;20033;-75
2021/01/25 03:23:21;;;;;;;9.73;2.08;;;4.30;53.00;;;;;;5038457;28;20044;-74
2021/01/25 03:25:47;;;;;;;5.60;1.98;;;4.30;53.10;;;;;;5056252;28;20408;-76
2021/01/25 03:28:13;;;;;;;3.88;1.88;;;4.30;53.20;;;;;;5054986;28;20394;-74
2021/01/25 03:30:39;;;;;;;3.72;2.17;;;4.20;53.30;;;;;;5048065;28;20057;-76
2021/01/25 03:33:05;;;;;;;4.50;2.13;;;4.20;53.30;;;;;;5036473;28;20021;-76
2021/01/25 03:35:31;;;;;;;5.43;2.38;;;4.20;53.30;;;;;;5035023;28;20104;-75
2021/01/25 03:37:57;;;;;;;4.22;2.47;;;4.20;53.30;;;;;;5036148;28;20435;-74
2021/01/25 03:40:23;;;;;;;13.85;3.35;;;4.20;53.20;;;;;;5036705;28;20502;-74
2021/01/25 03:42:49;;;;;;;5.22;2.40;;;4.10;53.30;;;;;;5036121;28;20057;-73
2021/01/25 03:45:14;;;;;;;6.15;2.20;;;4.10;53.40;;;;;;5036003;28;20025;-77
2021/01/25 03:47:40;;;;;;;3.83;1.90;;;4.10;53.50;;;;;;5035909;28;20029;-75
2021/01/25 03:50:07;;;;;;;3.95;2.40;;;4.10;53.80;;;;;;5035915;28;20067;-75
2021/01/25 03:52:32;;;;;;;6.10;2.40;;;4.00;54.10;;;;;;5018033;28;20064;-75
2021/01/25 03:54:58;;;;;;;4.55;2.40;;;4.00;54.20;;;;;;5036458;28;20041;-75
2021/01/25 03:57:24;;;;;;;7.25;2.13;;;4.00;54.40;;;;;;5036325;28;20104;-73
2021/01/25 03:59:49;;;;;;;4.35;1.77;;;4.00;54.40;;;;;;5034463;28;20026;-74
2021/01/25 04:02:16;;;;;;;3.55;2.08;;;3.90;54.30;;;;;;5035708;28;20025;-73
2021/01/25 04:04:42;;;;;;;4.88;1.80;;;3.90;54.20;;;;;;5035674;28;20029;-77
2021/01/25 04:07:10;;;;;;;4.30;2.10;;;3.90;54.30;;;;;;5035547;28;20036;-74
2021/01/25 04:09:37;;;;;;;3.08;2.15;;;3.90;54.20;;;;;;5035539;28;20022;-75
2021/01/25 04:12:03;;;;;;;3.47;1.98;;;3.80;54.20;;;;;;5017630;28;20030;-74
2021/01/25 04:14:29;;;;;;;2.90;1.58;;;3.80;54.40;;;;;;5035735;28;20107;-74
2021/01/25 04:16:54;;;;;;;5.43;1.80;;;3.80;54.50;;;;;;5035038;28;20478;-75
2021/01/25 04:19:20;;;;;;;3.45;1.83;;;3.70;54.70;;;;;;5035353;28;20414;-76
2021/01/25 04:21:46;;;;;;;4.07;2.00;;;3.70;54.80;;;;;;5035350;28;20038;-75
2021/01/25 04:24:12;;;;;;;7.32;2.97;;;3.70;55.00;;;;;;5034207;28;20029;-74
2021/01/25 04:26:41;;;;;;;4.75;2.10;;;3.60;55.10;;;;;;5035161;28;20029;-76
2021/01/25 04:29:09;;;;;;;4.38;2.10;;;3.60;55.20;;;;;;5033970;28;20099;-75
2021/01/25 04:31:35;;;;;;;5.75;2.03;;;3.60;55.30;;;;;;5034909;28;20041;-76
2021/01/25 04:34:01;;;;;;;4.50;1.70;;;3.60;55.20;;;;;;5035031;28;20025;-73
2021/01/25 04:36:27;;;;;;;5.57;2.03;;;3.60;55.20;;;;;;5031910;28;20018;-76
2021/01/25 04:38:53;;;;;;;4.60;1.90;;;3.60;55.10;;;;;;5032767;28;20376;-75
2021/01/25 04:41:18;;;;;;;6.07;2.10;;;3.50;54.90;;;;;;5033824;28;20037;-75
2021/01/25 04:43:46;;;;;;;3.90;1.73;;;3.50;54.80;;;;;;5034413;28;20022;-76
2021/01/25 04:46:13;;;;;;;3.95;1.92;;;3.50;54.70;;;;;;5034828;28;20083;-74
2021/01/25 04:48:40;;;;;;;2.75;1.77;;;3.50;54.70;;;;;;5016965;28;20121;-76
2021/01/25 04:51:06;;;;;;;4.10;1.77;;;3.50;54.70;;;;;;5034746;28;20026;-73
2021/01/25 04:53:32;;;;;;;5.13;1.90;;;3.50;54.70;;;;;;5016922;28;20087;-76
2021/01/25 04:55:59;;;;;;;6.55;2.17;;;3.50;54.70;;;;;;5034675;28;20463;-74
2021/01/25 04:58:25;;;;;;;5.97;2.03;;;3.40;54.70;;;;;;5016867;28;20033;-74
2021/01/25 05:00:51;;;;;;;4.15;1.98;;;3.40;54.80;;;;;;5016836;28;20083;-75
2021/01/25 05:03:17;;;;;;;5.75;2.50;;;3.40;54.90;;;;;;5034526;28;20029;-73
2021/01/25 05:05:43;;;;;;;4.68;1.60;;;3.40;54.80;;;;;;5034504;28;20032;-74
2021/01/25 05:08:09;;;;;;;4.50;1.92;;;3.30;54.70;;;;;;5034373;28;20594;-74
2021/01/25 05:10:35;;;;;;;3.47;2.08;;;3.30;54.70;;;;;;5034426;28;20029;-76
2021/01/25 05:13:01;;;;;;;6.05;3.13;;;3.30;54.60;;;;;;5034346;28;20475;-75
2021/01/25 05:15:32;;;;;;;4.82;2.60;;;3.20;54.90;;;;;;5016463;28;20075;-73
2021/01/25 05:18:02;;;;;;;3.92;2.13;;;3.20;55.10;;;;;;5034579;28;20105;-72
2021/01/25 05:20:30;;;;;;;4.00;1.90;;;3.20;55.20;;;;;;5033053;28;20029;-74
2021/01/25 05:22:58;;;;;;;3.72;1.90;;;3.20;55.20;;;;;;5034483;28;20029;-74
2021/01/25 05:25:29;;;;;;;2.50;1.63;;;3.10;55.10;;;;;;5034151;28;20025;-72
2021/01/25 05:27:59;;;;;;;2.55;1.80;;;3.10;55.00;;;;;;5033326;28;20025;-75
2021/01/25 05:30:26;;;;;;;5.25;2.53;;;3.10;54.90;;;;;;5033807;28;20047;-73
2021/01/25 05:32:54;;;;;;;9.32;2.20;;;3.10;55.00;;;;;;5033956;28;20029;-76
2021/01/25 05:35:23;;;;;;;4.57;2.63;;;3.00;55.20;;;;;;5032603;28;20116;-75
2021/01/25 05:37:56;;;;;;;3.97;2.25;;;3.00;55.50;;;;;;5033882;28;20056;-74
2021/01/25 05:40:24;;;;;;;8.80;2.67;;;3.00;55.60;;;;;;5034220;28;20022;-76
2021/01/25 05:42:51;;;;;;;5.88;2.45;;;2.90;55.50;;;;;;5033831;28;20083;-73
2021/01/25 05:45:18;;;;;;;5.10;2.38;;;3.00;55.50;;;;;;5016023;28;20090;-73
2021/01/25 05:47:55;;;;;;;7.22;3.10;;;3.00;55.50;;;;;;5016015;28;20411;-74
2021/01/25 05:50:35;;;;;;;5.70;2.72;;;3.00;55.50;;;;;;5033721;28;20014;-74
2021/01/25 05:53:06;;;;;;;4.30;2.28;;;3.00;55.60;;;;;;5033942;28;20095;-76
2021/01/25 05:55:33;;;;;;;4.90;2.80;;;3.00;55.60;;;;;;5033850;28;20064;-74
2021/01/25 05:58:01;;;;;;;5.15;2.40;;;3.00;55.60;;;;;;5032302;28;20029;-74
2021/01/25 06:00:27;;;;;;;16.58;6.65;;;2.90;55.50;;;;;;5033972;28;20029;-74
2021/01/25 06:02:54;;;;;;;16.60;8.07;;;2.90;55.40;;;;;;5033509;28;20021;-76
2021/01/25 06:05:40;;;;;;;8.35;4.28;;;2.90;55.40;;;;;;5015706;28;20056;-74
2021/01/25 06:08:30;;;;;;;3.95;2.55;;;2.90;55.40;;;;;;5033410;28;20474;-76
2021/01/25 06:11:18;;;;;;;4.32;2.45;;;2.80;55.20;;;;;;5033762;28;20018;-73
2021/01/25 06:14:09;;;;;;;8.07;2.97;;;2.80;55.30;;;;;;5033308;28;20478;-74
2021/01/25 06:16:35;;;;;;;8.20;3.10;;;2.70;55.40;;;;;;5004995;28;20037;-76
2021/01/25 06:19:08;;;;;;;8.40;2.92;;;2.70;55.60;;;;;;5034030;28;20032;-73
2021/01/25 06:21:37;;;;;;;4.45;2.50;;;2.70;55.80;;;;;;5033628;28;20387;-73
2021/01/25 06:24:06;;;;;;;5.63;3.10;;;2.70;55.60;;;;;;5033233;28;20075;-74
2021/01/25 06:26:33;;;;;;;5.03;2.70;;;2.60;55.70;;;;;;5033271;28;20032;-74
2021/01/25 06:29:03;;;;;;;9.93;3.78;;;2.60;55.60;;;;;;5033171;28;20025;-73
2021/01/25 06:31:38;;;;;;;5.68;3.28;;;2.60;55.70;;;;;;5015267;28;20041;-72
2021/01/25 06:34:06;;;;;;;6.07;3.10;;;2.50;55.70;;;;;;5033204;28;20364;-74
2021/01/25 06:36:34;;;;;;;6.82;3.08;;;2.50;55.70;;;;;;5031307;28;20032;-74
2021/01/25 06:39:04;;;;;;;5.72;3.63;;;2.50;55.70;;;;;;5034310;28;20025;-74
2021/01/25 06:41:42;;;;;;;5.53;2.90;;;2.50;55.70;;;;;;5036118;28;20037;-75
2021/01/25 06:44:10;;;;;;;6.95;3.72;;;2.40;55.80;;;;;;5037050;28;20017;-75
2021/01/25 06:46:38;;;;;;;8.25;4.47;;;2.40;55.80;;;;;;5036957;28;20014;-74
2021/01/25 06:49:06;;;;;;;4.53;3.13;;;2.40;56.00;;;;;;5019304;28;20029;-73
2021/01/25 06:51:32;;;;;;;5.25;2.88;;;2.40;56.20;;;;;;5037328;28;20028;-73
2021/01/25 06:54:02;;;;;;;6.15;3.05;;;2.40;56.20;;;;;;5036914;28;20020;-75
2021/01/25 06:56:52;;;;;;;6.43;3.40;;;2.40;56.30;;;;;;5036863;28;20382;-75
2021/01/25 06:59:23;;;;;;;7.70;3.75;;;2.40;56.40;;;;;;5018803;28;20026;-72
2021/01/25 07:01:50;;;;;;;5.50;3.22;;;2.40;57.00;;;;;;5036772;28;20105;-74
2021/01/25 07:04:19;;;;;;;8.88;3.60;;;2.40;56.50;;;;;;5036761;28;20021;-75
2021/01/25 07:06:49;;;;;;;5.47;3.03;;;2.50;56.60;;;;;;5036656;28;20033;-74
2021/01/25 07:09:30;;;;;;;5.85;3.15;;;2.50;56.60;;;;;;5018996;28;20032;-74
2021/01/25 07:12:02;;;;;;;6.57;3.65;;;2.50;56.70;;;;;;5017520;28;20021;-73
2021/01/25 07:14:33;;;;;;;6.60;3.60;;;2.50;56.80;;;;;;5035334;28;20050;-74
2021/01/25 07:16:59;;;;;;;8.40;3.58;;;2.50;56.90;;;;;;5036548;28;20029;-75
2021/01/25 07:19:26;;;;;;;5.50;3.58;;;2.60;57.10;;;;;;5036444;28;20022;-75
2021/01/25 07:21:53;;;;;;;6.97;3.85;;;2.70;57.20;;;;;;5036964;28;20025;-72
2021/01/25 07:24:24;;;;;;;8.45;3.75;;;2.70;57.30;;;;;;5036354;28;20104;-74
2021/01/25 07:26:56;;;;;;;8.73;5.22;;;2.80;57.50;;;;;;5018490;28;20091;-72
2021/01/25 07:29:22;;;;;;;8.75;5.40;;;2.90;57.50;;;;;;5018576;28;20028;-73
2021/01/25 07:31:49;;;;;;;9.82;5.18;;;3.00;57.50;;;;;;5036082;28;20096;-76
2021/01/25 07:34:15;;;;;;;5.30;3.53;;;3.10;57.50;;;;;;5036163;28;20056;-73
2021/01/25 07:36:42;;;;;;;6.50;4.30;;;3.10;57.40;;;;;;5034897;28;20524;-72
2021/01/25 07:39:10;;;;;;;7.60;5.05;;;3.20;57.40;;;;;;5036191;28;20386;-75
2021/01/25 07:41:36;;;;;;;7.13;4.30;;;3.30;57.40;;;;;;5036084;28;20481;-75
2021/01/25 07:44:04;;;;;;;9.18;3.17;;;3.40;57.40;;;;;;5036325;28;20116;-75
2021/01/25 07:46:31;;;;;;;12.27;7.40;;;3.50;57.30;;;;;;5035844;28;20422;-75
2021/01/25 07:48:57;;;;;;;11.82;7.05;;;3.60;57.40;;;;;;5018192;28;20047;-73
2021/01/25 07:51:24;;;;;;;11.30;6.88;;;3.60;57.30;;;;;;5035511;28;20018;-72
2021/01/25 07:53:51;;;;;;;17.48;8.80;;;3.80;57.50;;;;;;5034500;28;20120;-73
2021/01/25 07:56:18;;;;;;;15.52;6.32;;;3.80;57.40;;;;;;5034518;28;20026;-72
2021/01/25 07:58:45;;;;;;;9.82;4.80;;;3.90;57.40;;;;;;5035803;28;20025;-75
2021/01/25 08:01:16;;;;;;;13.00;5.35;;;4.00;57.30;;;;;;5035796;28;20097;-76
2021/01/25 08:03:44;;;;;;;9.48;5.53;;;4.10;57.30;;;;;;5035883;28;20053;-75
2021/01/25 08:06:11;;;;;;;9.95;5.20;;;4.20;57.20;;;;;;5034332;28;20495;-75
2021/01/25 08:08:39;;;;;;;10.45;5.03;;;4.30;56.80;;;;;;5035550;28;20070;-73
2021/01/25 08:11:08;;;;;;;10.27;6.20;;;4.30;56.40;;;;;;5035572;28;20025;-73
2021/01/25 08:13:56;;;;;;;12.38;6.07;;;4.40;56.00;;;;;;5035479;28;20026;-74
2021/01/25 08:16:26;;;;;;;11.43;6.30;;;4.50;55.70;;;;;;5035728;28;20022;-77
2021/01/25 08:18:55;;;;;;;9.40;5.00;;;4.60;55.60;;;;;;5035294;28;20382;-74
2021/01/25 08:21:27;;;;;;;13.70;5.32;;;4.60;55.40;;;;;;5035284;28;20475;-77
2021/01/25 08:23:57;;;;;;;8.23;5.40;;;4.70;55.40;;;;;;5035328;28;20033;-75
2021/01/25 08:26:25;;;;;;;8.95;5.00;;;4.80;55.40;;;;;;5035240;28;20395;-76
2021/01/25 08:28:58;;;;;;;10.27;4.85;;;4.90;55.40;;;;;;5035190;28;20021;-76
2021/01/25 08:31:33;;;;;;;9.13;5.28;;;4.90;55.10;;;;;;5035246;28;20037;-76
2021/01/25 08:34:19;;;;;;;7.55;4.30;;;5.00;55.00;;;;;;5035313;28;20029;-75
2021/01/25 08:37:00;;;;;;;7.47;4.25;;;5.00;55.00;;;;;;5029511;28;20064;-74
2021/01/25 08:39:34;;;;;;;8.25;5.13;;;5.10;54.90;;;;;;5014700;28;20022;-76
2021/01/25 08:42:03;;;;;;;8.43;4.97;;;5.20;54.80;;;;;;5013980;28;20022;-76
2021/01/25 08:44:29;;;;;;;7.55;4.70;;;5.30;54.70;;;;;;5014988;28;20022;-76
2021/01/25 08:47:07;;;;;;;8.40;4.72;;;5.30;54.50;;;;;;5014650;28;20034;-74
2021/01/25 08:49:37;;;;;;;9.65;5.05;;;5.40;54.50;;;;;;5015134;28;20483;-74
2021/01/25 08:52:09;;;;;;;8.68;4.55;;;5.50;54.40;;;;;;5015037;28;20101;-76
2021/01/25 08:54:38;;;;;;;8.35;4.32;;;5.50;54.20;;;;;;5028271;28;20070;-75
2021/01/25 08:57:23;;;;;;;9.55;5.13;;;5.60;54.30;;;;;;5034120;28;20030;-74
2021/01/25 08:59:49;;;;;;;13.40;5.10;;;5.70;54.00;;;;;;5007215;28;20549;-76
2021/01/25 09:02:17;;;;;;;8.18;4.65;;;5.70;53.90;;;;;;5015723;28;20033;-76
2021/01/25 09:04:44;;;;;;;9.82;4.75;;;5.80;54.00;;;;;;5034855;28;20030;-74
2021/01/25 09:07:15;;;;;;;12.95;5.75;;;5.90;54.00;;;;;;5034310;28;20447;-74
2021/01/25 09:09:41;;;;;;;17.25;6.22;;;5.90;53.80;;;;;;5016203;28;20120;-75
2021/01/25 09:12:08;;;;;;;17.73;6.00;;;6.00;53.60;;;;;;5033221;28;20422;-75
2021/01/25 09:14:34;;;;;;;11.02;4.60;;;6.00;53.40;;;;;;5014901;28;20509;-74
2021/01/25 09:17:00;;;;;;;9.90;5.35;;;6.00;53.30;;;;;;5032740;28;20037;-74
2021/01/25 09:19:26;;;;;;;8.52;5.05;;;6.10;53.20;;;;;;5033130;28;20036;-76
2021/01/25 09:21:52;;;;;;;10.38;4.85;;;6.10;53.10;;;;;;5033403;28;20430;-74
2021/01/25 09:24:26;;;;;;;27.63;7.60;;;6.20;53.10;;;;;;5078929;27;20362;-75
2021/01/25 09:26:51;;;;;;;18.23;5.80;;;6.20;53.10;;;;;;5070543;28;20055;-73
2021/01/25 09:29:18;;;;;;;10.90;5.90;;;6.30;52.90;;;;;;5067862;28;20033;-75
2021/01/25 09:31:43;;;;;;;23.58;5.82;;;6.30;52.70;;;;;;5066021;28;20017;-77
2021/01/25 09:34:09;;;;;;;16.05;5.97;;;6.30;52.50;;;;;;5060481;28;20040;-77
2021/01/25 09:36:35;;;;;;;33.72;6.50;;;6.30;52.50;;;;;;5065203;28;20052;-76
2021/01/25 09:39:01;;;;;;;13.20;5.28;;;6.40;52.60;;;;;;5050487;28;20025;-74
2021/01/25 09:41:27;;;;;;;19.02;5.35;;;6.40;52.50;;;;;;5050314;28;20479;-73
2021/01/25 09:43:54;;;;;;;17.42;7.07;;;6.50;52.20;;;;;;5049036;28;20475;-74
2021/01/25 09:46:20;;;;;;;17.35;6.55;;;6.50;52.00;;;;;;5050359;28;20072;-76
2021/01/25 09:48:46;;;;;;;24.60;5.90;;;6.50;51.90;;;;;;5050226;28;20193;-73
2021/01/25 09:51:12;;;;;;;13.57;5.63;;;6.50;51.90;;;;;;5050275;28;20485;-77
2021/01/25 09:53:38;;;;;;;15.70;6.43;;;6.60;51.80;;;;;;5060614;28;20032;-74
2021/01/25 09:56:03;;;;;;;14.70;5.78;;;6.60;51.40;;;;;;5070268;28;20021;-75
2021/01/25 09:58:30;;;;;;;9.68;5.10;;;6.60;51.10;;;;;;5056445;28;20068;-76
2021/01/25 10:00:55;;;;;;;11.60;5.70;;;6.60;51.00;;;;;;5053050;28;20033;-77
2021/01/25 10:03:21;;;;;;;11.25;5.22;;;6.60;50.80;;;;;;5057050;28;20029;-75
2021/01/25 10:05:47;;;;;;;7.70;4.50;;;6.70;50.80;;;;;;5058555;28;20540;-74
2021/01/25 10:08:12;;;;;;;9.57;4.82;;;6.80;50.60;;;;;;5061545;28;20021;-75
2021/01/25 10:10:38;;;;;;;7.72;4.18;;;6.80;50.50;;;;;;5068560;28;20124;-76
2021/01/25 10:13:05;;;;;;;7.47;4.78;;;6.80;50.10;;;;;;5068408;28;20584;-77
2021/01/25 10:15:33;;;;;;;7.35;4.90;;;6.90;50.10;;;;;;5059954;28;20061;-74
2021/01/25 10:18:00;;;;;;;11.32;4.78;;;6.90;49.80;;;;;;5051766;28;20021;-76
2021/01/25 10:20:25;;;;;;;7.63;4.25;;;6.90;49.60;;;;;;5049802;28;20045;-76
2021/01/25 10:22:51;;;;;;;12.57;6.07;;;7.00;49.90;;;;;;5061033;28;20041;-75
2021/01/25 10:25:18;;;;;;;12.77;5.30;;;7.10;49.70;;;;;;5050006;28;20029;-75
2021/01/25 10:27:44;;;;;;;15.15;5.47;;;7.10;49.50;;;;;;5050062;28;20096;-76
2021/01/25 10:30:12;;;;;;;14.45;5.43;;;7.10;49.50;;;;;;5048829;28;20018;-76
2021/01/25 10:32:38;;;;;;;13.70;5.50;;;7.20;49.40;;;;;;5049700;28;20112;-75
2021/01/25 10:35:04;;;;;;;21.60;6.18;;;7.20;49.30;;;;;;5046844;28;20052;-73
2021/01/25 10:37:30;;;;;;;18.80;9.57;;;7.30;49.10;;;;;;5050726;28;20031;-78
2021/01/25 10:39:56;;;;;;;14.20;8.45;;;7.40;48.80;;;;;;5048162;28;20107;-78
2021/01/25 10:42:21;;;;;;;14.15;6.30;;;7.40;48.60;;;;;;5042384;28;20061;-77
2021/01/25 10:44:47;;;;;;;19.95;6.53;;;7.50;48.50;;;;;;5049875;28;20014;-75
2021/01/25 10:47:18;;;;;;;8.05;4.93;;;7.50;48.50;;;;;;5046730;28;20068;-74
2021/01/25 10:49:48;;;;;;;12.93;5.82;;;7.60;48.60;;;;;;5045788;28;20489;-78
2021/01/25 10:52:16;;;;;;;16.60;6.30;;;7.60;48.60;;;;;;5040790;28;20420;-77
2021/01/25 10:54:42;;;;;;;12.95;5.25;;;7.70;48.60;;;;;;5035230;28;20393;-76
2021/01/25 10:57:08;;;;;;;12.60;5.72;;;7.80;48.40;;;;;;5043306;28;20029;-78
2021/01/25 10:59:35;;;;;;;9.02;5.03;;;7.90;48.50;;;;;;5041565;28;20036;-76
2021/01/25 11:02:02;;;;;;;10.40;6.55;;;8.00;48.60;;;;;;5054796;28;20110;-75
2021/01/25 11:04:28;;;;;;;9.55;4.75;;;8.10;48.50;;;;;;5052209;28;20496;-74
2021/01/25 11:06:53;;;;;;;10.80;4.57;;;8.20;49.10;;;;;;5054039;28;20057;-75
2021/01/25 11:09:19;;;;;;;10.52;5.45;;;8.30;47.70;;;;;;5054116;28;20025;-76
2021/01/25 11:11:45;;;;;;;13.95;5.75;;;8.30;47.20;;;;;;5051626;28;20490;-77
2021/01/25 11:14:11;;;;;;;11.73;5.18;;;8.40;46.80;;;;;;5047066;28;20088;-75
2021/01/25 11:16:37;;;;;;;16.75;5.85;;;8.40;46.70;;;;;;5035360;28;20486;-74
2021/01/25 11:19:03;;;;;;;9.52;5.32;;;8.50;46.80;;;;;;5035287;28;20037;-75
2021/01/25 11:21:28;;;;;;;8.52;4.88;;;8.50;46.80;;;;;;5035332;28;20029;-74
2021/01/25 11:23:54;;;;;;;9.30;4.28;;;8.60;46.80;;;;;;5035115;28;20052;-74
2021/01/25 11:26:20;;;;;;;8.18;4.57;;;8.60;46.80;;;;;;5035116;28;20478;-74
2021/01/25 11:28:47;;;;;;;10.65;4.90;;;8.70;47.00;;;;;;5054338;28;20025;-75
2021/01/25 11:31:13;;;;;;;12.02;5.68;;;8.80;46.80;;;;;;5040231;28;20382;-75
2021/01/25 11:33:39;;;;;;;10.13;4.95;;;8.90;46.70;;;;;;5055121;28;20025;-74
2021/01/25 11:36:07;;;;;;;9.93;4.57;;;9.00;46.00;;;;;;5054637;28;20021;-75
2021/01/25 11:38:35;;;;;;;12.77;4.63;;;9.10;45.80;;;;;;5053688;28;20063;-74
2021/01/25 11:41:00;;;;;;;8.07;4.43;;;9.10;45.10;;;;;;5036361;28;20021;-73
2021/01/25 11:43:26;;;;;;;8.65;4.18;;;9.10;45.00;;;;;;5034124;28;20051;-73
2021/01/25 11:45:52;;;;;;;8.82;4.60;;;9.20;45.10;;;;;;5032656;28;20037;-75
2021/01/25 11:48:19;;;;;;;12.48;4.22;;;9.20;45.30;;;;;;5034798;28;20020;-74
2021/01/25 11:50:45;;;;;;;7.03;3.78;;;9.30;45.00;;;;;;5034717;28;20104;-74
2021/01/25 11:53:12;;;;;;;20.77;5.10;;;9.30;44.90;;;;;;5033461;28;20489;-75
2021/01/25 11:55:41;;;;;;;9.25;4.60;;;9.30;44.60;;;;;;5035034;28;20388;-75
2021/01/25 11:58:07;;;;;;;6.90;4.18;;;9.20;44.40;;;;;;5034501;28;20112;-75
2021/01/25 12:00:33;;;;;;;8.32;3.92;;;9.10;44.40;;;;;;5034727;28;20103;-75
2021/01/25 12:02:59;;;;;;;14.65;4.72;;;9.10;44.50;;;;;;5034379;28;20080;-73
2021/01/25 12:05:25;;;;;;;8.30;4.35;;;9.10;44.40;;;;;;5034267;28;20021;-75
2021/01/25 12:07:51;;;;;;;9.23;4.75;;;9.00;44.10;;;;;;5034684;28;20069;-73
2021/01/25 12:10:16;;;;;;;13.38;4.00;;;8.90;44.10;;;;;;5034666;28;20073;-75
2021/01/25 12:12:42;;;;;;;7.80;3.10;;;8.80;44.30;;;;;;5034262;28;20067;-76
2021/01/25 12:15:08;;;;;;;8.52;4.35;;;8.80;44.40;;;;;;5033212;28;20026;-73
2021/01/25 12:17:34;;;;;;;6.72;3.67;;;8.80;44.50;;;;;;5034276;28;20025;-72
2021/01/25 12:20:00;;;;;;;12.57;4.07;;;8.80;44.80;;;;;;5034124;28;20124;-76
2021/01/25 12:22:25;;;;;;;6.05;3.50;;;8.70;44.80;;;;;;5038995;28;20103;-74
2021/01/25 12:24:51;;;;;;;8.55;2.97;;;8.70;44.40;;;;;;5052737;28;20031;-75
2021/01/25 12:27:17;;;;;;;5.28;3.35;;;8.60;44.50;;;;;;5054002;28;20029;-76
2021/01/25 12:29:43;;;;;;;4.63;3.10;;;8.60;44.60;;;;;;5051073;28;20021;-73
2021/01/25 12:32:09;;;;;;;6.22;3.20;;;8.50;44.40;;;;;;5032774;28;20074;-73
2021/01/25 12:34:35;;;;;;;7.45;3.60;;;8.50;44.80;;;;;;5046611;28;20035;-76
2021/01/25 12:37:02;;;;;;;7.20;3.65;;;8.40;44.10;;;;;;5039169;28;20060;-75
2021/01/25 12:39:27;;;;;;;6.43;3.15;;;8.30;44.20;;;;;;5051240;28;20078;-74
2021/01/25 12:41:53;;;;;;;5.43;3.40;;;8.20;44.30;;;;;;5037295;28;20025;-75
2021/01/25 12:44:19;;;;;;;7.68;3.50;;;8.20;44.50;;;;;;5035097;28;20037;-76
2021/01/25 12:46:49;;;;;;;10.77;4.55;;;8.20;44.80;;;;;;5048849;28;20088;-76
2021/01/25 12:49:15;;;;;;;6.90;4.18;;;8.20;45.10;;;;;;5044266;28;20091;-77
2021/01/25 12:51:41;;;;;;;7.90;4.53;;;8.30;45.60;;;;;;5051763;28;20100;-75
2021/01/25 12:54:07;;;;;;;6.85;3.90;;;8.30;45.40;;;;;;5045819;28;20116;-75
2021/01/25 12:56:32;;;;;;;5.00;3.65;;;8.50;45.30;;;;;;5044192;28;20426;-77